OTBH/IUD METAR and TAF weather

Enter ICAO airport designator
Station Type Date Time Source
OTBH METAR 2020/09/22 04:56 UTC NOAA

OTBH 220456Z 32009KT 9999 CLR 31/27 A2970 RMK AO2A SLP058 T03140268


Station Type Date Time Source
OTBH Decoded METAR 2020/09/22 04:56 UTC NOAA

Station name not available
Sep 22, 2020 - 12:56 AM EDT / 2020.09.22 0456 UTC
Wind: from the NW (320 degrees) at 10 MPH (9 KT):0
Visibility: greater than 7 mile(s):0
Sky conditions: clear
Temperature: 88.5 F (31.4 C)
Heat index: 105.3 F (40.7 C):1
Dew Point: 80.2 F (26.8 C)
Relative Humidity: 76%
Pressure (altimeter): 29.7 in. Hg (1005 hPa)
ob: OTBH 220456Z 32009KT 9999 CLR 31/27 A2970 RMK AO2A SLP058 T03140268
cycle: 5

Station Type Date Time Source
OTBH TAF 2020/09/22 05:09 UTC NOAA

TAF TAF
AMD OTBH 2205/2306 34009KT 8000 BR SKC QNH2962INS
BECMG 2213/2214 08006KT 9999 NSW SKC QNH2961INS
BECMG 2223/2300 26006KT 8000 BR SKC QNH2962INS
TEMPO 2300/2304 5000 BR
BECMG 2305/2306 32009KT 9999 NSW SKC QNH2960INS TX42/2211Z TN27/2205Z

Example: see airport list